Terminal Aerodrome Forecast
Issued by NWS Jacksonville, FL

Home | Current Version | Previous Version | Text Only | Print | Product List | Glossary On
Versions: 1 2 3 4 5 6 7 8 9 10 11 12 13 14 15 16 17 18
000
FTUS42 KJAX 051743
TAFSSI
TAF
KSSI 051743Z 0518/0618 15008KT P6SM VCSH SCT035 SCT250
     FM051900 15008KT P6SM VCTS SCT035CB BKN100
      TEMPO 0520/0523 VRB20G30KT 3SM TSRA BKN030CB OVC060
     FM060200 20005KT P6SM SCT100 BKN200
     FM061400 26005KT P6SM SCT030 BKN250=

USA.gov is the U.S. government's official web portal to all federal, state and local government web resources and services.